sensor_id;sensor_type;location;lat;lon;timestamp;P1;durP1;ratioP1;P2;durP2;ratioP2
12762;SDS011;6445;52.490;13.378;2023-04-29T00:02:06;8.68;;;6.70;;
12762;SDS011;6445;52.490;13.378;2023-04-29T00:04:32;8.00;;;7.13;;
12762;SDS011;6445;52.490;13.378;2023-04-29T00:06:57;10.10;;;6.65;;
12762;SDS011;6445;52.490;13.378;2023-04-29T00:09:23;9.15;;;7.47;;
12762;SDS011;6445;52.490;13.378;2023-04-29T00:11:48;10.38;;;7.25;;
12762;SDS011;6445;52.490;13.378;2023-04-29T00:14:14;9.38;;;6.50;;
12762;SDS011;6445;52.490;13.378;2023-04-29T00:16:40;9.77;;;7.18;;
12762;SDS011;6445;52.490;13.378;2023-04-29T00:19:05;8.68;;;6.93;;
12762;SDS011;6445;52.490;13.378;2023-04-29T00:21:30;9.75;;;7.28;;
12762;SDS011;6445;52.490;13.378;2023-04-29T00:23:57;9.68;;;7.45;;
12762;SDS011;6445;52.490;13.378;2023-04-29T00:26:22;8.75;;;7.32;;
12762;SDS011;6445;52.490;13.378;2023-04-29T00:28:47;9.35;;;7.30;;
12762;SDS011;6445;52.490;13.378;2023-04-29T00:31:13;10.55;;;8.25;;
12762;SDS011;6445;52.490;13.378;2023-04-29T00:33:38;10.00;;;7.40;;
12762;SDS011;6445;52.490;13.378;2023-04-29T00:36:04;10.07;;;7.45;;
12762;SDS011;6445;52.490;13.378;2023-04-29T00:38:30;8.35;;;7.50;;
12762;SDS011;6445;52.490;13.378;2023-04-29T00:40:55;11.30;;;7.63;;
12762;SDS011;6445;52.490;13.378;2023-04-29T00:43:21;9.30;;;7.47;;
12762;SDS011;6445;52.490;13.378;2023-04-29T00:45:46;8.38;;;7.47;;
12762;SDS011;6445;52.490;13.378;2023-04-29T00:48:12;10.00;;;7.60;;
12762;SDS011;6445;52.490;13.378;2023-04-29T00:50:39;7.88;;;6.70;;
12762;SDS011;6445;52.490;13.378;2023-04-29T00:53:04;10.60;;;8.15;;
12762;SDS011;6445;52.490;13.378;2023-04-29T00:55:31;10.30;;;7.70;;
12762;SDS011;6445;52.490;13.378;2023-04-29T00:57:57;11.15;;;7.03;;
12762;SDS011;6445;52.490;13.378;2023-04-29T01:00:23;8.85;;;7.95;;
12762;SDS011;6445;52.490;13.378;2023-04-29T01:02:50;9.73;;;7.38;;
12762;SDS011;6445;52.490;13.378;2023-04-29T01:05:17;10.25;;;7.50;;
12762;SDS011;6445;52.490;13.378;2023-04-29T01:13:42;9.80;;;8.02;;
12762;SDS011;6445;52.490;13.378;2023-04-29T01:16:22;10.80;;;7.82;;
12762;SDS011;6445;52.490;13.378;2023-04-29T01:18:54;10.23;;;8.15;;
12762;SDS011;6445;52.490;13.378;2023-04-29T01:21:23;11.00;;;8.73;;
12762;SDS011;6445;52.490;13.378;2023-04-29T01:23:49;10.25;;;9.00;;
12762;SDS011;6445;52.490;13.378;2023-04-29T01:26:20;11.27;;;9.88;;
12762;SDS011;6445;52.490;13.378;2023-04-29T01:28:53;12.45;;;9.68;;
12762;SDS011;6445;52.490;13.378;2023-04-29T01:36:56;14.50;;;10.32;;
12762;SDS011;6445;52.490;13.378;2023-04-29T01:39:40;12.05;;;10.40;;
12762;SDS011;6445;52.490;13.378;2023-04-29T01:45:00;13.40;;;11.13;;
12762;SDS011;6445;52.490;13.378;2023-04-29T01:47:30;15.02;;;11.20;;
12762;SDS011;6445;52.490;13.378;2023-04-29T01:49:56;14.13;;;11.50;;
12762;SDS011;6445;52.490;13.378;2023-04-29T01:52:22;17.25;;;12.43;;
12762;SDS011;6445;52.490;13.378;2023-04-29T01:54:47;16.17;;;13.02;;
12762;SDS011;6445;52.490;13.378;2023-04-29T01:57:12;17.27;;;12.07;;
12762;SDS011;6445;52.490;13.378;2023-04-29T01:59:38;15.40;;;12.88;;
12762;SDS011;6445;52.490;13.378;2023-04-29T02:02:03;17.83;;;12.60;;
12762;SDS011;6445;52.490;13.378;2023-04-29T02:04:28;16.30;;;12.90;;
12762;SDS011;6445;52.490;13.378;2023-04-29T02:06:57;17.10;;;13.70;;
12762;SDS011;6445;52.490;13.378;2023-04-29T02:09:22;17.67;;;13.73;;
12762;SDS011;6445;52.490;13.378;2023-04-29T02:11:48;19.02;;;13.88;;
12762;SDS011;6445;52.490;13.378;2023-04-29T02:14:13;18.33;;;14.40;;
12762;SDS011;6445;52.490;13.378;2023-04-29T02:16:38;15.25;;;13.65;;
12762;SDS011;6445;52.490;13.378;2023-04-29T02:19:03;16.67;;;13.55;;
12762;SDS011;6445;52.490;13.378;2023-04-29T02:21:29;17.88;;;14.57;;
12762;SDS011;6445;52.490;13.378;2023-04-29T02:23:55;15.27;;;13.65;;
12762;SDS011;6445;52.490;13.378;2023-04-29T02:26:20;16.70;;;14.45;;
12762;SDS011;6445;52.490;13.378;2023-04-29T02:28:46;20.08;;;15.38;;
12762;SDS011;6445;52.490;13.378;2023-04-29T02:31:11;19.33;;;15.23;;
12762;SDS011;6445;52.490;13.378;2023-04-29T02:33:37;18.52;;;15.20;;
12762;SDS011;6445;52.490;13.378;2023-04-29T02:36:02;20.73;;;15.15;;
12762;SDS011;6445;52.490;13.378;2023-04-29T02:38:28;19.75;;;15.55;;
12762;SDS011;6445;52.490;13.378;2023-04-29T02:40:53;19.70;;;16.27;;
12762;SDS011;6445;52.490;13.378;2023-04-29T02:43:18;18.58;;;16.17;;
12762;SDS011;6445;52.490;13.378;2023-04-29T02:45:43;20.13;;;16.73;;
12762;SDS011;6445;52.490;13.378;2023-04-29T02:48:09;21.02;;;17.45;;
12762;SDS011;6445;52.490;13.378;2023-04-29T02:50:34;21.45;;;17.42;;
12762;SDS011;6445;52.490;13.378;2023-04-29T02:52:59;21.70;;;16.42;;
12762;SDS011;6445;52.490;13.378;2023-04-29T02:55:25;21.65;;;17.42;;
12762;SDS011;6445;52.490;13.378;2023-04-29T02:57:50;22.38;;;17.67;;
12762;SDS011;6445;52.490;13.378;2023-04-29T03:00:16;23.45;;;17.92;;
12762;SDS011;6445;52.490;13.378;2023-04-29T03:02:42;20.38;;;18.08;;
12762;SDS011;6445;52.490;13.378;2023-04-29T03:05:07;24.02;;;19.27;;
12762;SDS011;6445;52.490;13.378;2023-04-29T03:07:32;24.05;;;19.33;;
12762;SDS011;6445;52.490;13.378;2023-04-29T03:09:58;25.17;;;20.02;;
12762;SDS011;6445;52.490;13.378;2023-04-29T03:12:23;25.02;;;20.05;;
12762;SDS011;6445;52.490;13.378;2023-04-29T03:14:48;24.95;;;19.98;;
12762;SDS011;6445;52.490;13.378;2023-04-29T03:17:14;29.20;;;21.92;;
12762;SDS011;6445;52.490;13.378;2023-04-29T03:19:40;26.23;;;21.45;;
12762;SDS011;6445;52.490;13.378;2023-04-29T03:22:05;26.23;;;21.38;;
12762;SDS011;6445;52.490;13.378;2023-04-29T03:24:32;26.90;;;22.13;;
12762;SDS011;6445;52.490;13.378;2023-04-29T03:26:57;31.02;;;23.27;;
12762;SDS011;6445;52.490;13.378;2023-04-29T03:29:24;121.22;;;86.18;;
12762;SDS011;6445;52.490;13.378;2023-04-29T03:31:50;32.50;;;24.23;;
12762;SDS011;6445;52.490;13.378;2023-04-29T03:34:15;30.48;;;23.95;;
12762;SDS011;6445;52.490;13.378;2023-04-29T03:36:40;32.38;;;24.30;;
12762;SDS011;6445;52.490;13.378;2023-04-29T03:39:06;34.33;;;25.33;;
12762;SDS011;6445;52.490;13.378;2023-04-29T03:41:31;30.52;;;24.42;;
12762;SDS011;6445;52.490;13.378;2023-04-29T03:43:56;33.40;;;25.08;;
12762;SDS011;6445;52.490;13.378;2023-04-29T03:46:25;31.13;;;25.17;;
12762;SDS011;6445;52.490;13.378;2023-04-29T03:48:51;37.35;;;25.40;;
12762;SDS011;6445;52.490;13.378;2023-04-29T03:51:16;32.72;;;25.25;;
12762;SDS011;6445;52.490;13.378;2023-04-29T03:53:42;31.67;;;24.58;;
12762;SDS011;6445;52.490;13.378;2023-04-29T03:56:07;36.80;;;26.02;;
12762;SDS011;6445;52.490;13.378;2023-04-29T03:58:33;36.45;;;25.58;;
12762;SDS011;6445;52.490;13.378;2023-04-29T04:00:58;33.80;;;25.27;;
12762;SDS011;6445;52.490;13.378;2023-04-29T04:03:24;31.00;;;24.90;;
12762;SDS011;6445;52.490;13.378;2023-04-29T04:05:51;33.28;;;24.50;;
12762;SDS011;6445;52.490;13.378;2023-04-29T04:08:16;34.13;;;26.13;;
12762;SDS011;6445;52.490;13.378;2023-04-29T04:10:42;37.67;;;26.23;;
12762;SDS011;6445;52.490;13.378;2023-04-29T04:13:08;33.72;;;26.25;;
12762;SDS011;6445;52.490;13.378;2023-04-29T04:15:33;33.58;;;26.40;;
12762;SDS011;6445;52.490;13.378;2023-04-29T04:17:58;36.35;;;26.65;;
12762;SDS011;6445;52.490;13.378;2023-04-29T04:20:24;50.47;;;36.55;;
12762;SDS011;6445;52.490;13.378;2023-04-29T04:22:49;35.90;;;27.38;;
12762;SDS011;6445;52.490;13.378;2023-04-29T04:25:14;38.78;;;27.92;;
12762;SDS011;6445;52.490;13.378;2023-04-29T04:27:39;39.38;;;29.10;;
12762;SDS011;6445;52.490;13.378;2023-04-29T04:30:05;41.03;;;29.90;;
12762;SDS011;6445;52.490;13.378;2023-04-29T04:32:31;38.17;;;28.17;;
12762;SDS011;6445;52.490;13.378;2023-04-29T04:34:56;38.00;;;29.23;;
12762;SDS011;6445;52.490;13.378;2023-04-29T04:37:21;39.60;;;29.33;;
12762;SDS011;6445;52.490;13.378;2023-04-29T04:39:47;42.97;;;31.00;;
12762;SDS011;6445;52.490;13.378;2023-04-29T04:42:12;43.53;;;29.95;;
12762;SDS011;6445;52.490;13.378;2023-04-29T04:44:37;43.40;;;30.23;;
12762;SDS011;6445;52.490;13.378;2023-04-29T04:47:03;44.28;;;30.60;;
12762;SDS011;6445;52.490;13.378;2023-04-29T04:49:29;42.15;;;30.92;;
12762;SDS011;6445;52.490;13.378;2023-04-29T04:51:55;45.80;;;31.02;;
12762;SDS011;6445;52.490;13.378;2023-04-29T04:54:20;42.42;;;30.35;;
12762;SDS011;6445;52.490;13.378;2023-04-29T04:56:45;45.80;;;31.40;;
12762;SDS011;6445;52.490;13.378;2023-04-29T04:59:12;39.67;;;29.38;;
12762;SDS011;6445;52.490;13.378;2023-04-29T05:01:37;95.15;;;65.97;;
12762;SDS011;6445;52.490;13.378;2023-04-29T05:04:02;41.72;;;31.13;;
12762;SDS011;6445;52.490;13.378;2023-04-29T05:06:28;47.38;;;30.83;;
12762;SDS011;6445;52.490;13.378;2023-04-29T05:08:53;45.08;;;31.98;;
12762;SDS011;6445;52.490;13.378;2023-04-29T05:11:19;45.22;;;30.90;;
12762;SDS011;6445;52.490;13.378;2023-04-29T05:13:45;43.58;;;32.30;;
12762;SDS011;6445;52.490;13.378;2023-04-29T05:16:11;46.97;;;31.52;;
12762;SDS011;6445;52.490;13.378;2023-04-29T05:18:37;43.95;;;31.02;;
12762;SDS011;6445;52.490;13.378;2023-04-29T05:21:02;43.90;;;30.88;;
12762;SDS011;6445;52.490;13.378;2023-04-29T05:23:27;43.80;;;31.13;;
12762;SDS011;6445;52.490;13.378;2023-04-29T05:25:52;47.20;;;30.63;;
12762;SDS011;6445;52.490;13.378;2023-04-29T05:28:18;41.10;;;30.52;;
12762;SDS011;6445;52.490;13.378;2023-04-29T05:30:43;44.85;;;29.90;;
12762;SDS011;6445;52.490;13.378;2023-04-29T05:33:09;46.42;;;30.30;;
12762;SDS011;6445;52.490;13.378;2023-04-29T05:35:35;44.95;;;31.70;;
12762;SDS011;6445;52.490;13.378;2023-04-29T05:38:01;45.10;;;30.23;;
12762;SDS011;6445;52.490;13.378;2023-04-29T05:40:26;46.97;;;30.58;;
12762;SDS011;6445;52.490;13.378;2023-04-29T05:42:51;47.97;;;31.00;;
12762;SDS011;6445;52.490;13.378;2023-04-29T05:45:17;50.65;;;31.92;;
12762;SDS011;6445;52.490;13.378;2023-04-29T05:47:42;49.72;;;31.70;;
12762;SDS011;6445;52.490;13.378;2023-04-29T05:50:07;48.20;;;31.55;;
12762;SDS011;6445;52.490;13.378;2023-04-29T05:52:33;47.08;;;31.65;;
12762;SDS011;6445;52.490;13.378;2023-04-29T05:54:58;45.58;;;29.40;;
12762;SDS011;6445;52.490;13.378;2023-04-29T05:57:23;49.08;;;30.88;;
12762;SDS011;6445;52.490;13.378;2023-04-29T05:59:48;49.05;;;30.73;;
12762;SDS011;6445;52.490;13.378;2023-04-29T06:02:14;48.47;;;30.80;;
12762;SDS011;6445;52.490;13.378;2023-04-29T06:04:39;46.67;;;29.40;;
12762;SDS011;6445;52.490;13.378;2023-04-29T06:07:07;49.40;;;30.42;;
12762;SDS011;6445;52.490;13.378;2023-04-29T06:09:34;49.78;;;30.23;;
12762;SDS011;6445;52.490;13.378;2023-04-29T06:12:00;53.70;;;31.65;;
12762;SDS011;6445;52.490;13.378;2023-04-29T06:14:25;50.50;;;30.27;;
12762;SDS011;6445;52.490;13.378;2023-04-29T06:16:50;50.95;;;30.77;;
12762;SDS011;6445;52.490;13.378;2023-04-29T06:19:16;49.67;;;30.10;;
12762;SDS011;6445;52.490;13.378;2023-04-29T06:21:41;52.75;;;31.77;;
12762;SDS011;6445;52.490;13.378;2023-04-29T06:24:06;51.97;;;30.10;;
12762;SDS011;6445;52.490;13.378;2023-04-29T06:26:31;47.67;;;28.88;;
12762;SDS011;6445;52.490;13.378;2023-04-29T06:28:57;53.53;;;30.42;;
12762;SDS011;6445;52.490;13.378;2023-04-29T06:31:22;48.70;;;29.85;;
12762;SDS011;6445;52.490;13.378;2023-04-29T06:33:47;50.08;;;30.48;;
12762;SDS011;6445;52.490;13.378;2023-04-29T06:36:13;45.97;;;29.30;;
12762;SDS011;6445;52.490;13.378;2023-04-29T06:38:38;46.67;;;29.15;;
12762;SDS011;6445;52.490;13.378;2023-04-29T06:41:03;47.28;;;28.02;;
12762;SDS011;6445;52.490;13.378;2023-04-29T06:43:29;50.65;;;28.77;;
12762;SDS011;6445;52.490;13.378;2023-04-29T06:45:54;43.75;;;27.25;;
12762;SDS011;6445;52.490;13.378;2023-04-29T06:48:20;40.25;;;25.38;;
12762;SDS011;6445;52.490;13.378;2023-04-29T06:50:49;39.42;;;25.20;;
12762;SDS011;6445;52.490;13.378;2023-04-29T06:53:19;42.97;;;29.08;;
12762;SDS011;6445;52.490;13.378;2023-04-29T06:55:44;40.38;;;24.40;;
12762;SDS011;6445;52.490;13.378;2023-04-29T06:58:13;34.75;;;23.45;;
12762;SDS011;6445;52.490;13.378;2023-04-29T07:00:39;37.67;;;23.05;;
12762;SDS011;6445;52.490;13.378;2023-04-29T07:03:08;35.17;;;22.23;;
12762;SDS011;6445;52.490;13.378;2023-04-29T07:05:34;32.85;;;22.02;;
12762;SDS011;6445;52.490;13.378;2023-04-29T07:08:00;32.22;;;20.38;;
12762;SDS011;6445;52.490;13.378;2023-04-29T07:10:25;33.10;;;21.38;;
12762;SDS011;6445;52.490;13.378;2023-04-29T07:12:51;33.03;;;20.73;;
12762;SDS011;6445;52.490;13.378;2023-04-29T07:15:17;32.95;;;20.65;;
12762;SDS011;6445;52.490;13.378;2023-04-29T07:17:42;32.55;;;21.20;;
12762;SDS011;6445;52.490;13.378;2023-04-29T07:20:07;31.98;;;20.60;;
12762;SDS011;6445;52.490;13.378;2023-04-29T07:22:33;29.58;;;18.67;;
12762;SDS011;6445;52.490;13.378;2023-04-29T07:24:58;33.80;;;21.83;;
12762;SDS011;6445;52.490;13.378;2023-04-29T07:27:23;31.67;;;20.38;;
12762;SDS011;6445;52.490;13.378;2023-04-29T07:29:49;30.63;;;21.00;;
12762;SDS011;6445;52.490;13.378;2023-04-29T07:32:14;35.03;;;21.88;;
12762;SDS011;6445;52.490;13.378;2023-04-29T07:34:40;33.78;;;20.75;;
12762;SDS011;6445;52.490;13.378;2023-04-29T07:37:05;33.10;;;21.23;;
12762;SDS011;6445;52.490;13.378;2023-04-29T07:39:30;31.80;;;21.38;;
12762;SDS011;6445;52.490;13.378;2023-04-29T07:41:56;34.00;;;21.27;;
12762;SDS011;6445;52.490;13.378;2023-04-29T07:44:21;29.50;;;22.35;;
12762;SDS011;6445;52.490;13.378;2023-04-29T07:46:46;34.80;;;22.70;;
12762;SDS011;6445;52.490;13.378;2023-04-29T07:49:11;34.10;;;23.00;;
12762;SDS011;6445;52.490;13.378;2023-04-29T07:51:39;34.35;;;22.27;;
12762;SDS011;6445;52.490;13.378;2023-04-29T07:54:05;31.15;;;21.95;;
12762;SDS011;6445;52.490;13.378;2023-04-29T07:56:31;27.55;;;20.55;;
12762;SDS011;6445;52.490;13.378;2023-04-29T07:58:56;27.48;;;21.60;;
12762;SDS011;6445;52.490;13.378;2023-04-29T08:01:21;24.65;;;19.80;;
12762;SDS011;6445;52.490;13.378;2023-04-29T08:03:46;27.80;;;21.23;;
12762;SDS011;6445;52.490;13.378;2023-04-29T08:06:12;23.63;;;18.40;;
12762;SDS011;6445;52.490;13.378;2023-04-29T08:08:37;25.02;;;19.20;;
12762;SDS011;6445;52.490;13.378;2023-04-29T08:11:02;22.83;;;18.45;;
12762;SDS011;6445;52.490;13.378;2023-04-29T08:13:28;23.30;;;17.95;;
12762;SDS011;6445;52.490;13.378;2023-04-29T08:15:53;22.58;;;17.38;;
12762;SDS011;6445;52.490;13.378;2023-04-29T08:18:18;18.90;;;16.75;;
12762;SDS011;6445;52.490;13.378;2023-04-29T08:20:45;18.83;;;15.27;;
12762;SDS011;6445;52.490;13.378;2023-04-29T08:23:12;17.92;;;14.45;;
12762;SDS011;6445;52.490;13.378;2023-04-29T08:25:39;22.38;;;14.65;;
12762;SDS011;6445;52.490;13.378;2023-04-29T08:28:06;17.73;;;14.45;;
12762;SDS011;6445;52.490;13.378;2023-04-29T08:30:31;15.93;;;14.23;;
12762;SDS011;6445;52.490;13.378;2023-04-29T08:32:57;18.92;;;14.60;;
12762;SDS011;6445;52.490;13.378;2023-04-29T08:35:22;17.90;;;15.23;;
12762;SDS011;6445;52.490;13.378;2023-04-29T08:37:48;21.33;;;15.60;;
12762;SDS011;6445;52.490;13.378;2023-04-29T08:40:13;22.10;;;15.60;;
12762;SDS011;6445;52.490;13.378;2023-04-29T08:42:38;21.33;;;17.13;;
12762;SDS011;6445;52.490;13.378;2023-04-29T08:45:03;17.52;;;15.25;;
12762;SDS011;6445;52.490;13.378;2023-04-29T08:47:30;20.67;;;15.50;;
12762;SDS011;6445;52.490;13.378;2023-04-29T08:49:58;18.38;;;15.57;;
12762;SDS011;6445;52.490;13.378;2023-04-29T08:52:28;20.92;;;16.10;;
12762;SDS011;6445;52.490;13.378;2023-04-29T08:54:53;19.35;;;15.93;;
12762;SDS011;6445;52.490;13.378;2023-04-29T08:57:20;18.48;;;15.38;;
12762;SDS011;6445;52.490;13.378;2023-04-29T08:59:46;18.05;;;16.13;;
12762;SDS011;6445;52.490;13.378;2023-04-29T09:02:12;20.77;;;16.15;;
12762;SDS011;6445;52.490;13.378;2023-04-29T09:04:46;19.52;;;15.85;;
12762;SDS011;6445;52.490;13.378;2023-04-29T09:07:16;18.63;;;15.70;;
12762;SDS011;6445;52.490;13.378;2023-04-29T09:09:42;19.02;;;16.42;;
12762;SDS011;6445;52.490;13.378;2023-04-29T09:12:07;22.52;;;17.25;;
12762;SDS011;6445;52.490;13.378;2023-04-29T09:14:33;22.50;;;16.88;;
12762;SDS011;6445;52.490;13.378;2023-04-29T09:17:00;21.80;;;16.70;;
12762;SDS011;6445;52.490;13.378;2023-04-29T09:19:29;19.40;;;15.95;;
12762;SDS011;6445;52.490;13.378;2023-04-29T09:21:56;22.35;;;17.40;;
12762;SDS011;6445;52.490;13.378;2023-04-29T09:24:25;19.67;;;16.33;;
12762;SDS011;6445;52.490;13.378;2023-04-29T09:26:51;20.20;;;16.55;;
12762;SDS011;6445;52.490;13.378;2023-04-29T09:29:17;23.45;;;17.77;;
12762;SDS011;6445;52.490;13.378;2023-04-29T09:31:43;22.73;;;17.83;;
12762;SDS011;6445;52.490;13.378;2023-04-29T09:34:09;24.33;;;18.65;;
12762;SDS011;6445;52.490;13.378;2023-04-29T09:36:45;25.90;;;18.80;;
12762;SDS011;6445;52.490;13.378;2023-04-29T09:39:13;27.27;;;19.85;;
12762;SDS011;6445;52.490;13.378;2023-04-29T09:44:17;31.52;;;22.80;;
12762;SDS011;6445;52.490;13.378;2023-04-29T09:46:53;31.40;;;22.08;;
12762;SDS011;6445;52.490;13.378;2023-04-29T09:49:26;59.35;;;42.88;;
12762;SDS011;6445;52.490;13.378;2023-04-29T09:52:03;32.80;;;23.50;;
12762;SDS011;6445;52.490;13.378;2023-04-29T09:54:30;35.53;;;24.23;;
12762;SDS011;6445;52.490;13.378;2023-04-29T09:56:57;36.30;;;23.55;;
12762;SDS011;6445;52.490;13.378;2023-04-29T09:59:23;34.35;;;23.25;;
12762;SDS011;6445;52.490;13.378;2023-04-29T10:01:49;35.33;;;25.08;;
12762;SDS011;6445;52.490;13.378;2023-04-29T10:04:17;40.00;;;27.20;;
12762;SDS011;6445;52.490;13.378;2023-04-29T10:06:44;46.28;;;30.90;;
12762;SDS011;6445;52.490;13.378;2023-04-29T10:09:12;49.17;;;30.63;;
12762;SDS011;6445;52.490;13.378;2023-04-29T10:11:42;48.45;;;30.75;;
12762;SDS011;6445;52.490;13.378;2023-04-29T10:14:10;44.90;;;31.48;;
12762;SDS011;6445;52.490;13.378;2023-04-29T10:16:39;59.55;;;34.13;;
12762;SDS011;6445;52.490;13.378;2023-04-29T10:19:11;49.70;;;33.50;;
12762;SDS011;6445;52.490;13.378;2023-04-29T10:21:39;51.10;;;33.97;;
12762;SDS011;6445;52.490;13.378;2023-04-29T10:24:05;50.53;;;34.78;;
12762;SDS011;6445;52.490;13.378;2023-04-29T10:26:31;53.65;;;34.28;;
12762;SDS011;6445;52.490;13.378;2023-04-29T10:28:58;53.78;;;33.92;;
12762;SDS011;6445;52.490;13.378;2023-04-29T10:31:27;56.25;;;35.35;;
12762;SDS011;6445;52.490;13.378;2023-04-29T10:33:57;51.85;;;35.58;;
12762;SDS011;6445;52.490;13.378;2023-04-29T10:36:23;51.40;;;35.55;;
12762;SDS011;6445;52.490;13.378;2023-04-29T10:38:53;66.15;;;44.72;;
12762;SDS011;6445;52.490;13.378;2023-04-29T10:41:24;44.92;;;32.28;;
12762;SDS011;6445;52.490;13.378;2023-04-29T10:43:52;46.35;;;31.92;;
12762;SDS011;6445;52.490;13.378;2023-04-29T10:46:22;45.45;;;32.15;;
12762;SDS011;6445;52.490;13.378;2023-04-29T10:48:49;48.78;;;31.92;;
12762;SDS011;6445;52.490;13.378;2023-04-29T10:56:47;38.90;;;29.73;;
12762;SDS011;6445;52.490;13.378;2023-04-29T10:59:21;42.17;;;28.73;;
12762;SDS011;6445;52.490;13.378;2023-04-29T11:02:06;34.88;;;27.58;;
12762;SDS011;6445;52.490;13.378;2023-04-29T11:04:33;40.47;;;27.58;;
12762;SDS011;6445;52.490;13.378;2023-04-29T11:06:58;37.53;;;27.95;;
12762;SDS011;6445;52.490;13.378;2023-04-29T11:09:31;38.45;;;27.52;;
12762;SDS011;6445;52.490;13.378;2023-04-29T11:12:01;36.83;;;27.67;;
12762;SDS011;6445;52.490;13.378;2023-04-29T11:14:36;30.10;;;26.17;;
12762;SDS011;6445;52.490;13.378;2023-04-29T11:17:02;31.00;;;24.55;;
12762;SDS011;6445;52.490;13.378;2023-04-29T11:19:35;32.08;;;23.92;;
12762;SDS011;6445;52.490;13.378;2023-04-29T11:24:48;28.63;;;23.60;;
12762;SDS011;6445;52.490;13.378;2023-04-29T11:27:24;33.47;;;22.85;;
12762;SDS011;6445;52.490;13.378;2023-04-29T11:30:04;26.38;;;22.08;;
12762;SDS011;6445;52.490;13.378;2023-04-29T11:32:31;27.83;;;21.73;;
12762;SDS011;6445;52.490;13.378;2023-04-29T11:35:13;24.65;;;19.98;;
12762;SDS011;6445;52.490;13.378;2023-04-29T11:37:41;25.23;;;20.33;;
12762;SDS011;6445;52.490;13.378;2023-04-29T11:40:08;22.98;;;19.45;;
12762;SDS011;6445;52.490;13.378;2023-04-29T11:42:35;24.75;;;19.75;;
12762;SDS011;6445;52.490;13.378;2023-04-29T11:45:04;22.83;;;19.05;;
12762;SDS011;6445;52.490;13.378;2023-04-29T11:47:31;24.13;;;18.65;;
12762;SDS011;6445;52.490;13.378;2023-04-29T11:50:03;21.98;;;17.40;;
12762;SDS011;6445;52.490;13.378;2023-04-29T11:52:30;20.17;;;16.27;;
12762;SDS011;6445;52.490;13.378;2023-04-29T11:54:56;25.00;;;15.63;;
12762;SDS011;6445;52.490;13.378;2023-04-29T11:57:22;18.45;;;14.88;;
12762;SDS011;6445;52.490;13.378;2023-04-29T11:59:48;19.40;;;15.52;;
12762;SDS011;6445;52.490;13.378;2023-04-29T12:02:13;18.05;;;14.25;;
12762;SDS011;6445;52.490;13.378;2023-04-29T12:04:47;18.15;;;15.35;;
12762;SDS011;6445;52.490;13.378;2023-04-29T12:07:15;16.00;;;14.13;;
12762;SDS011;6445;52.490;13.378;2023-04-29T12:09:42;18.45;;;14.38;;
12762;SDS011;6445;52.490;13.378;2023-04-29T12:12:11;18.95;;;14.68;;
12762;SDS011;6445;52.490;13.378;2023-04-29T12:14:37;18.05;;;13.93;;
12762;SDS011;6445;52.490;13.378;2023-04-29T12:17:04;19.70;;;14.77;;
12762;SDS011;6445;52.490;13.378;2023-04-29T12:19:30;17.73;;;13.65;;
12762;SDS011;6445;52.490;13.378;2023-04-29T12:21:59;18.40;;;15.98;;
12762;SDS011;6445;52.490;13.378;2023-04-29T12:24:26;19.90;;;15.02;;
12762;SDS011;6445;52.490;13.378;2023-04-29T12:26:51;17.73;;;15.05;;
12762;SDS011;6445;52.490;13.378;2023-04-29T12:29:22;17.70;;;14.90;;
12762;SDS011;6445;52.490;13.378;2023-04-29T12:31:48;21.05;;;15.77;;
12762;SDS011;6445;52.490;13.378;2023-04-29T12:34:13;20.58;;;15.35;;
12762;SDS011;6445;52.490;13.378;2023-04-29T12:36:42;20.98;;;15.50;;
12762;SDS011;6445;52.490;13.378;2023-04-29T12:39:09;17.60;;;14.25;;
12762;SDS011;6445;52.490;13.378;2023-04-29T12:41:40;18.40;;;15.10;;
12762;SDS011;6445;52.490;13.378;2023-04-29T12:44:06;17.25;;;13.90;;
12762;SDS011;6445;52.490;13.378;2023-04-29T12:46:35;17.95;;;13.85;;
12762;SDS011;6445;52.490;13.378;2023-04-29T12:49:02;17.30;;;13.65;;
12762;SDS011;6445;52.490;13.378;2023-04-29T12:51:31;17.13;;;13.88;;
12762;SDS011;6445;52.490;13.378;2023-04-29T12:53:58;16.58;;;12.73;;
12762;SDS011;6445;52.490;13.378;2023-04-29T12:56:27;12.88;;;11.57;;
12762;SDS011;6445;52.490;13.378;2023-04-29T12:58:53;13.60;;;11.75;;
12762;SDS011;6445;52.490;13.378;2023-04-29T13:01:18;15.18;;;10.70;;
12762;SDS011;6445;52.490;13.378;2023-04-29T13:03:43;11.90;;;9.88;;
12762;SDS011;6445;52.490;13.378;2023-04-29T13:06:08;11.77;;;9.02;;
12762;SDS011;6445;52.490;13.378;2023-04-29T13:08:34;11.00;;;9.50;;
12762;SDS011;6445;52.490;13.378;2023-04-29T13:10:59;11.35;;;9.50;;
12762;SDS011;6445;52.490;13.378;2023-04-29T13:13:24;10.13;;;8.45;;
12762;SDS011;6445;52.490;13.378;2023-04-29T13:15:49;12.20;;;8.75;;
12762;SDS011;6445;52.490;13.378;2023-04-29T13:18:15;9.57;;;8.13;;
12762;SDS011;6445;52.490;13.378;2023-04-29T13:20:40;7.18;;;6.47;;
12762;SDS011;6445;52.490;13.378;2023-04-29T13:23:06;10.55;;;7.43;;
12762;SDS011;6445;52.490;13.378;2023-04-29T13:25:31;8.43;;;7.20;;
12762;SDS011;6445;52.490;13.378;2023-04-29T13:27:56;7.78;;;6.60;;
12762;SDS011;6445;52.490;13.378;2023-04-29T13:30:21;8.57;;;6.32;;
12762;SDS011;6445;52.490;13.378;2023-04-29T13:32:47;6.40;;;5.65;;
12762;SDS011;6445;52.490;13.378;2023-04-29T13:35:12;6.07;;;5.28;;
12762;SDS011;6445;52.490;13.378;2023-04-29T13:37:37;7.47;;;5.63;;
12762;SDS011;6445;52.490;13.378;2023-04-29T13:40:03;5.78;;;5.03;;
12762;SDS011;6445;52.490;13.378;2023-04-29T13:42:29;6.30;;;4.90;;
12762;SDS011;6445;52.490;13.378;2023-04-29T13:44:54;6.90;;;5.28;;
12762;SDS011;6445;52.490;13.378;2023-04-29T13:47:21;5.90;;;5.30;;
12762;SDS011;6445;52.490;13.378;2023-04-29T13:49:47;7.57;;;5.28;;
12762;SDS011;6445;52.490;13.378;2023-04-29T13:52:12;8.93;;;6.30;;
12762;SDS011;6445;52.490;13.378;2023-04-29T13:54:38;7.68;;;6.53;;
12762;SDS011;6445;52.490;13.378;2023-04-29T13:57:03;7.53;;;5.97;;
12762;SDS011;6445;52.490;13.378;2023-04-29T13:59:29;7.43;;;6.63;;
12762;SDS011;6445;52.490;13.378;2023-04-29T14:01:56;8.73;;;6.70;;
12762;SDS011;6445;52.490;13.378;2023-04-29T14:04:22;10.15;;;7.47;;
12762;SDS011;6445;52.490;13.378;2023-04-29T14:06:48;9.60;;;7.88;;
12762;SDS011;6445;52.490;13.378;2023-04-29T14:09:13;9.40;;;7.15;;
12762;SDS011;6445;52.490;13.378;2023-04-29T14:11:39;10.70;;;7.22;;
12762;SDS011;6445;52.490;13.378;2023-04-29T14:14:04;10.32;;;7.63;;
12762;SDS011;6445;52.490;13.378;2023-04-29T14:16:29;9.90;;;7.70;;
12762;SDS011;6445;52.490;13.378;2023-04-29T14:18:56;9.52;;;7.43;;
12762;SDS011;6445;52.490;13.378;2023-04-29T14:21:21;10.77;;;7.75;;
12762;SDS011;6445;52.490;13.378;2023-04-29T14:23:46;11.50;;;8.02;;
12762;SDS011;6445;52.490;13.378;2023-04-29T14:26:12;10.60;;;7.80;;
12762;SDS011;6445;52.490;13.378;2023-04-29T14:28:38;10.30;;;7.45;;
12762;SDS011;6445;52.490;13.378;2023-04-29T14:31:03;12.68;;;8.00;;
12762;SDS011;6445;52.490;13.378;2023-04-29T14:33:28;12.35;;;7.65;;
12762;SDS011;6445;52.490;13.378;2023-04-29T14:35:53;13.80;;;7.88;;
12762;SDS011;6445;52.490;13.378;2023-04-29T14:38:19;9.80;;;7.78;;
12762;SDS011;6445;52.490;13.378;2023-04-29T14:40:44;10.88;;;7.82;;
12762;SDS011;6445;52.490;13.378;2023-04-29T14:43:09;10.35;;;7.72;;
12762;SDS011;6445;52.490;13.378;2023-04-29T14:45:34;11.52;;;7.50;;
12762;SDS011;6445;52.490;13.378;2023-04-29T14:48:01;8.38;;;6.93;;